createdAt,value
2019-03-08T00:00:09.053Z,6.00
2019-03-08T00:02:37.446Z,6.00
2019-03-08T00:05:06.638Z,6.00
2019-03-08T00:07:35.505Z,6.00
2019-03-08T00:10:04.756Z,6.00
2019-03-08T00:12:33.143Z,6.00
2019-03-08T00:15:01.550Z,6.00
2019-03-08T00:17:30.020Z,6.00
2019-03-08T00:19:58.424Z,6.00
2019-03-08T00:22:27.189Z,5.90
2019-03-08T00:24:55.606Z,5.80
2019-03-08T00:27:23.988Z,5.80
2019-03-08T00:29:52.421Z,5.80
2019-03-08T00:32:20.812Z,5.70
2019-03-08T00:34:49.212Z,5.70
2019-03-08T00:39:46.155Z,5.60
2019-03-08T00:42:14.548Z,5.60
2019-03-08T00:44:42.959Z,5.60
2019-03-08T00:47:11.353Z,5.60
2019-03-08T00:49:39.760Z,5.60
2019-03-08T00:54:36.621Z,5.50
2019-03-08T00:57:05.289Z,5.50
2019-03-08T00:59:33.688Z,5.40
2019-03-08T01:02:02.084Z,5.30
2019-03-08T01:04:30.496Z,5.30
2019-03-08T01:06:58.887Z,5.30
2019-03-08T01:09:27.292Z,5.20
2019-03-08T01:11:55.684Z,5.20
2019-03-08T01:14:24.071Z,5.20
2019-03-08T01:16:52.552Z,5.20
2019-03-08T01:21:49.026Z,4.80
2019-03-08T01:24:17.503Z,4.70
2019-03-08T01:26:45.905Z,4.60
2019-03-08T01:29:14.292Z,4.50
2019-03-08T01:31:42.698Z,4.50
2019-03-08T01:34:11.092Z,4.40
2019-03-08T01:36:39.505Z,4.40
2019-03-08T01:39:08.650Z,4.30
2019-03-08T01:41:37.064Z,4.20
2019-03-08T01:44:05.517Z,4.20
2019-03-08T01:46:33.932Z,4.10
2019-03-08T01:49:02.329Z,4.20
2019-03-08T01:53:58.825Z,4.40
2019-03-08T01:58:55.305Z,4.60
2019-03-08T02:01:25.287Z,4.70
2019-03-08T02:03:53.684Z,4.70
2019-03-08T02:06:22.089Z,4.80
2019-03-08T02:08:50.484Z,4.80
2019-03-08T02:11:38.247Z,4.80
2019-03-08T02:14:06.651Z,4.80
2019-03-08T02:19:03.272Z,4.80
2019-03-08T02:21:31.676Z,4.80
2019-03-08T02:24:00.071Z,4.80
2019-03-08T02:26:28.475Z,4.90
2019-03-08T02:28:56.872Z,4.90
2019-03-08T02:31:25.283Z,4.90
2019-03-08T02:36:22.165Z,4.90
2019-03-08T02:38:50.577Z,4.90
2019-03-08T02:41:19.055Z,4.80
2019-03-08T02:43:47.448Z,4.80
2019-03-08T02:46:15.860Z,4.70
2019-03-08T02:48:44.528Z,4.70
2019-03-08T02:53:41.008Z,4.80
2019-03-08T02:56:09.415Z,4.80
2019-03-08T02:58:37.813Z,4.80
2019-03-08T03:03:34.577Z,4.80
2019-03-08T03:06:02.973Z,4.80
2019-03-08T03:10:59.540Z,4.90
2019-03-08T03:13:27.941Z,5.00
2019-03-08T03:15:56.357Z,5.00
2019-03-08T03:18:24.748Z,5.00
2019-03-08T03:20:53.165Z,5.00
2019-03-08T03:23:21.561Z,5.00
2019-03-08T03:25:50.029Z,5.00
2019-03-08T03:28:18.416Z,5.10
2019-03-08T03:33:22.382Z,5.10
2019-03-08T03:35:50.848Z,5.10
2019-03-08T03:38:19.253Z,5.20
2019-03-08T03:40:47.656Z,5.20
2019-03-08T03:51:23.032Z,5.30
2019-03-08T03:53:51.609Z,5.30
2019-03-08T03:56:20.034Z,5.30
2019-03-08T03:58:48.475Z,5.30
2019-03-08T04:01:18.533Z,5.30
2019-03-08T04:04:15.102Z,5.30
2019-03-08T04:07:16.292Z,5.40
2019-03-08T04:12:13.144Z,5.30
2019-03-08T04:17:09.623Z,5.30
2019-03-08T04:19:38.092Z,5.30
2019-03-08T04:22:06.524Z,5.30
2019-03-08T04:27:25.068Z,5.30
2019-03-08T04:34:56.817Z,5.40
2019-03-08T04:40:12.240Z,5.50
2019-03-08T04:42:40.664Z,5.50
2019-03-08T04:47:38.613Z,5.50
2019-03-08T04:50:11.939Z,5.60
2019-03-08T04:52:40.348Z,5.60
2019-03-08T04:55:19.780Z,5.60
2019-03-08T04:57:48.568Z,5.60
2019-03-08T05:00:18.803Z,5.70
2019-03-08T05:02:47.216Z,5.60
2019-03-08T05:05:15.621Z,5.60
2019-03-08T05:07:44.030Z,5.60
2019-03-08T05:10:17.188Z,5.60
2019-03-08T05:12:45.666Z,5.60
2019-03-08T05:15:14.785Z,5.60
2019-03-08T05:17:43.194Z,5.70
2019-03-08T05:27:54.567Z,5.60
2019-03-08T05:32:51.041Z,5.60
2019-03-08T05:35:19.450Z,5.70
2019-03-08T05:37:48.437Z,5.70
2019-03-08T05:40:16.992Z,5.70
2019-03-08T05:42:45.394Z,5.70
2019-03-08T05:45:14.729Z,5.80
2019-03-08T05:47:43.201Z,5.90
2019-03-08T05:50:12.337Z,5.90
2019-03-08T05:52:41.474Z,6.00
2019-03-08T05:55:11.111Z,6.00
2019-03-08T05:57:39.513Z,6.00
2019-03-08T06:02:44.184Z,6.10
2019-03-08T06:05:12.732Z,6.10
2019-03-08T06:07:41.145Z,6.10
2019-03-08T06:10:26.924Z,6.10
2019-03-08T06:15:23.484Z,6.20
2019-03-08T06:17:51.902Z,6.20
2019-03-08T06:20:20.294Z,6.20
2019-03-08T06:22:48.720Z,6.30
2019-03-08T06:25:17.132Z,6.40
2019-03-08T06:27:45.609Z,6.40
2019-03-08T06:30:14.332Z,6.40
2019-03-08T06:32:42.745Z,6.50
2019-03-08T06:35:11.554Z,6.50
2019-03-08T06:42:55.448Z,6.70
2019-03-08T06:45:23.845Z,7.00
2019-03-08T06:47:52.253Z,7.70
2019-03-08T06:50:20.645Z,8.50
2019-03-08T06:52:49.069Z,9.30
2019-03-08T06:55:18.090Z,9.90
2019-03-08T06:57:46.506Z,10.20
2019-03-08T07:00:34.763Z,10.10
2019-03-08T07:03:04.897Z,9.60
2019-03-08T07:08:01.372Z,8.90
2019-03-08T07:10:29.772Z,8.80
2019-03-08T07:15:28.357Z,8.50
2019-03-08T07:17:56.764Z,8.50
2019-03-08T07:20:29.491Z,8.60
2019-03-08T07:22:59.541Z,9.10
2019-03-08T07:25:51.494Z,9.90
2019-03-08T07:28:23.573Z,10.30
2019-03-08T07:31:05.743Z,10.20
2019-03-08T07:33:39.104Z,10.10
2019-03-08T07:36:27.096Z,10.00
2019-03-08T07:39:15.288Z,10.10
2019-03-08T07:42:00.099Z,10.20
2019-03-08T07:44:41.952Z,10.30
2019-03-08T07:47:17.694Z,10.30
2019-03-08T07:57:42.712Z,10.00
2019-03-08T08:00:15.480Z,9.90
2019-03-08T08:05:57.519Z,10.00
2019-03-08T08:08:27.372Z,10.20
2019-03-08T08:11:13.637Z,10.50
2019-03-08T08:13:46.736Z,10.60
2019-03-08T08:19:01.085Z,10.50
2019-03-08T08:24:17.193Z,10.90
2019-03-08T08:26:47.232Z,11.00
2019-03-08T08:29:35.254Z,11.00
2019-03-08T08:32:22.423Z,11.10
2019-03-08T08:34:58.526Z,11.10
2019-03-08T08:40:18.110Z,10.60
2019-03-08T08:43:06.059Z,10.30
2019-03-08T08:48:15.094Z,10.10
2019-03-08T08:53:32.704Z,10.10
2019-03-08T08:56:05.550Z,10.20
2019-03-08T08:58:35.590Z,10.20
2019-03-08T09:03:35.728Z,10.50
2019-03-08T09:06:08.595Z,10.60
2019-03-08T09:11:08.340Z,10.60
2019-03-08T09:13:50.259Z,10.40
2019-03-08T09:16:22.817Z,10.40
2019-03-08T09:18:52.863Z,10.40
2019-03-08T09:21:25.862Z,10.40
2019-03-08T09:24:02.070Z,10.30
2019-03-08T09:26:57.422Z,10.30
2019-03-08T09:29:30.433Z,10.20
2019-03-08T09:32:06.612Z,10.20
2019-03-08T09:34:39.383Z,10.20
2019-03-08T09:37:25.689Z,10.30
2019-03-08T09:39:55.771Z,11.20
2019-03-08T09:42:31.670Z,11.80
2019-03-08T09:45:17.108Z,12.40
2019-03-08T09:50:31.309Z,13.00
2019-03-08T09:53:01.545Z,12.90
2019-03-08T09:55:31.725Z,12.70
2019-03-08T09:58:04.400Z,12.30
2019-03-08T10:00:34.459Z,12.00
2019-03-08T10:03:20.934Z,11.90
2019-03-08T10:08:32.612Z,11.20
2019-03-08T10:11:12.325Z,11.10
2019-03-08T10:13:45.110Z,11.10
2019-03-08T10:16:15.165Z,10.90
2019-03-08T10:18:50.903Z,10.90
2019-03-08T10:21:20.965Z,10.80
2019-03-08T10:23:52.605Z,10.70
2019-03-08T10:26:25.295Z,10.50
2019-03-08T10:29:01.037Z,10.30
2019-03-08T10:34:25.850Z,10.40
2019-03-08T10:36:55.963Z,10.40
2019-03-08T10:42:25.729Z,10.50
2019-03-08T10:45:01.598Z,10.80
2019-03-08T10:52:36.565Z,11.20
2019-03-08T10:55:12.701Z,11.00
2019-03-08T10:57:51.272Z,10.60
2019-03-08T11:00:37.759Z,10.90
2019-03-08T11:03:16.780Z,11.20
2019-03-08T11:05:52.640Z,11.10
2019-03-08T11:08:29.553Z,10.80
2019-03-08T11:11:06.164Z,10.70
2019-03-08T11:13:45.900Z,10.70
2019-03-08T11:19:08.718Z,10.90
2019-03-08T11:21:51.641Z,11.10
2019-03-08T11:24:30.932Z,11.30
2019-03-08T11:27:05.046Z,11.40
2019-03-08T11:29:32.776Z,11.30
2019-03-08T11:32:23.290Z,11.20
2019-03-08T11:35:08.052Z,11.30
2019-03-08T11:37:40.881Z,11.50
2019-03-08T11:40:30.133Z,11.60
2019-03-08T11:43:00.189Z,11.70
2019-03-08T11:45:36.001Z,11.70
2019-03-08T11:48:08.721Z,11.50
2019-03-08T11:50:55.160Z,11.30
2019-03-08T11:53:40.434Z,11.20
2019-03-08T11:56:10.479Z,11.20
2019-03-08T11:58:46.489Z,11.40
2019-03-08T12:01:16.529Z,11.50
2019-03-08T12:03:55.849Z,11.60
2019-03-08T12:09:01.634Z,12.10
2019-03-08T12:11:47.841Z,12.30
2019-03-08T12:14:20.923Z,12.40
2019-03-08T12:16:51.446Z,12.30
2019-03-08T12:19:37.864Z,12.10
2019-03-08T12:27:57.824Z,12.10
2019-03-08T12:30:33.563Z,11.80
2019-03-08T12:33:03.669Z,11.40
2019-03-08T12:35:43.028Z,11.10
2019-03-08T12:38:22.137Z,10.80
2019-03-08T12:40:58.193Z,10.60
2019-03-08T12:43:45.179Z,10.40
2019-03-08T12:46:24.121Z,10.40
2019-03-08T12:48:54.269Z,10.30
2019-03-08T12:51:36.285Z,10.20
2019-03-08T12:54:22.590Z,10.20
2019-03-08T12:56:55.548Z,10.30
2019-03-08T12:59:41.748Z,10.30
2019-03-08T13:07:32.646Z,10.70
2019-03-08T13:10:11.720Z,10.70
2019-03-08T13:12:40.134Z,10.70
2019-03-08T13:15:11.497Z,10.90
2019-03-08T13:17:40.031Z,11.00
2019-03-08T13:20:11.749Z,11.00
2019-03-08T13:22:40.147Z,10.90
2019-03-08T13:25:08.908Z,11.00
2019-03-08T13:27:37.698Z,11.00
2019-03-08T13:30:15.510Z,11.00
2019-03-08T13:35:13.849Z,11.40
2019-03-08T13:40:15.785Z,11.60
2019-03-08T13:42:44.212Z,11.60
2019-03-08T13:45:18.527Z,11.50
2019-03-08T13:47:46.933Z,11.40
2019-03-08T13:50:15.924Z,11.30
2019-03-08T13:55:17.456Z,11.30
2019-03-08T13:57:45.934Z,11.20
2019-03-08T14:00:18.954Z,11.30
2019-03-08T14:02:47.359Z,11.30
2019-03-08T14:05:16.361Z,11.20
2019-03-08T14:07:44.782Z,11.10
2019-03-08T14:10:18.559Z,10.90
2019-03-08T14:12:46.969Z,10.90
2019-03-08T14:15:16.730Z,10.80
2019-03-08T14:17:45.350Z,10.60
2019-03-08T14:22:43.493Z,10.40
2019-03-08T14:27:40.040Z,10.20
2019-03-08T14:30:17.723Z,10.10
2019-03-08T14:35:14.636Z,9.90
2019-03-08T14:40:48.334Z,9.80
2019-03-08T14:46:21.039Z,9.70
2019-03-08T14:48:49.612Z,9.70
2019-03-08T14:51:18.017Z,9.60
2019-03-08T14:56:14.485Z,9.50
2019-03-08T14:58:43.152Z,9.60
2019-03-08T15:03:43.862Z,9.60
2019-03-08T15:06:10.172Z,9.60
2019-03-08T15:08:38.585Z,9.50
2019-03-08T15:11:07.741Z,9.40
2019-03-08T15:13:36.479Z,9.40
2019-03-08T15:16:05.100Z,9.40
2019-03-08T15:21:04.654Z,9.30
2019-03-08T15:23:33.056Z,9.30
2019-03-08T15:26:01.471Z,9.30
2019-03-08T15:28:30.051Z,9.30
2019-03-08T15:33:26.609Z,9.40
2019-03-08T15:35:55.004Z,9.40
2019-03-08T15:40:51.478Z,9.20
2019-03-08T15:50:46.720Z,9.10
2019-03-08T15:53:14.563Z,9.00
2019-03-08T15:55:52.644Z,8.90
2019-03-08T15:58:13.569Z,8.80
2019-03-08T16:00:44.800Z,8.90
2019-03-08T16:03:13.209Z,8.80
2019-03-08T16:05:41.631Z,8.80
2019-03-08T16:08:10.521Z,8.70
2019-03-08T16:10:38.929Z,8.50
2019-03-08T16:13:07.347Z,8.30
2019-03-08T16:20:45.104Z,8.10
2019-03-08T16:33:30.484Z,7.80
2019-03-08T16:36:03.267Z,7.70
2019-03-08T16:38:36.133Z,7.70
2019-03-08T16:41:12.067Z,7.60
2019-03-08T16:43:45.444Z,7.60
2019-03-08T16:48:54.886Z,7.40
2019-03-08T16:51:30.325Z,7.30
2019-03-08T16:53:59.375Z,7.30
2019-03-08T16:56:38.200Z,7.20
2019-03-08T16:59:17.456Z,7.10
2019-03-08T17:01:50.490Z,7.10
2019-03-08T17:04:35.208Z,7.00
2019-03-08T17:09:50.777Z,7.00
2019-03-08T17:15:14.704Z,6.90
2019-03-08T17:17:44.796Z,6.80
2019-03-08T17:20:15.348Z,6.70
2019-03-08T17:22:48.285Z,6.70
2019-03-08T17:25:18.363Z,6.70
2019-03-08T17:27:57.149Z,6.60
2019-03-08T17:33:04.265Z,6.50
2019-03-08T17:35:53.399Z,6.50
2019-03-08T17:38:23.724Z,6.40
2019-03-08T17:40:53.789Z,6.40
2019-03-08T17:46:21.643Z,6.40
2019-03-08T17:48:57.779Z,6.30
2019-03-08T17:51:33.631Z,6.30
2019-03-08T17:54:06.550Z,6.30
2019-03-08T18:02:26.661Z,6.10
2019-03-08T18:04:56.704Z,6.10
2019-03-08T18:07:29.440Z,6.00
2019-03-08T18:09:59.491Z,6.00
2019-03-08T18:15:13.030Z,6.00
2019-03-08T18:17:43.065Z,6.00
2019-03-08T18:20:13.105Z,6.00
2019-03-08T18:22:45.884Z,5.90
2019-03-08T18:25:22.145Z,6.00
2019-03-08T18:27:55.290Z,5.90
2019-03-08T18:30:37.326Z,5.90
2019-03-08T18:33:07.849Z,5.90
2019-03-08T18:40:52.500Z,5.70
2019-03-08T18:43:34.983Z,5.70
2019-03-08T18:46:05.026Z,5.70
2019-03-08T18:51:25.169Z,5.50
2019-03-08T18:53:55.236Z,5.50
2019-03-08T18:58:57.768Z,5.50
2019-03-08T19:04:03.826Z,5.50
2019-03-08T19:09:28.207Z,5.50
2019-03-08T19:12:01.075Z,5.50
2019-03-08T19:17:26.469Z,5.40
2019-03-08T19:20:13.112Z,5.40
2019-03-08T19:22:52.108Z,5.30
2019-03-08T19:25:27.988Z,5.30
2019-03-08T19:28:00.976Z,5.30
2019-03-08T19:30:36.841Z,5.20
2019-03-08T19:33:06.949Z,5.20
2019-03-08T19:35:39.855Z,5.20
2019-03-08T19:38:16.120Z,5.20
2019-03-08T19:40:58.133Z,5.20
2019-03-08T19:43:28.225Z,5.20
2019-03-08T19:45:58.319Z,5.30
2019-03-08T19:48:28.376Z,5.20
2019-03-08T19:51:04.669Z,5.20
2019-03-08T19:53:59.755Z,5.20
2019-03-08T19:56:38.528Z,5.20
2019-03-08T19:59:26.674Z,5.20
2019-03-08T20:02:08.796Z,5.20
2019-03-08T20:04:41.812Z,5.20
2019-03-08T20:07:11.842Z,5.20
2019-03-08T20:12:24.544Z,5.30
2019-03-08T20:15:11.243Z,5.30
2019-03-08T20:17:44.206Z,5.30
2019-03-08T20:20:30.615Z,5.30
2019-03-08T20:23:12.580Z,5.20
2019-03-08T20:25:42.621Z,5.10
2019-03-08T20:28:15.504Z,5.10
2019-03-08T20:31:02.108Z,5.10
2019-03-08T20:36:14.053Z,5.10
2019-03-08T20:38:59.076Z,5.00
2019-03-08T20:41:32.109Z,5.10
2019-03-08T20:44:02.172Z,5.10
2019-03-08T20:46:41.184Z,5.10
2019-03-08T20:49:09.592Z,5.10
2019-03-08T20:51:37.988Z,5.10
2019-03-08T20:54:06.392Z,5.20
2019-03-08T20:56:34.835Z,5.20
2019-03-08T20:59:03.285Z,5.20
2019-03-08T21:01:31.725Z,5.20
2019-03-08T21:04:00.148Z,5.20
2019-03-08T21:06:28.541Z,5.10
2019-03-08T21:08:56.956Z,5.20
2019-03-08T21:11:25.352Z,5.20
2019-03-08T21:16:22.364Z,5.10
2019-03-08T21:18:50.896Z,5.10
2019-03-08T21:21:19.336Z,5.00
2019-03-08T21:23:47.788Z,5.00
2019-03-08T21:28:44.310Z,4.90
2019-03-08T21:31:12.750Z,4.80
2019-03-08T21:33:41.176Z,4.80
2019-03-08T21:36:09.687Z,4.80
2019-03-08T21:38:38.123Z,4.80
2019-03-08T21:41:06.840Z,4.80
2019-03-08T21:43:35.280Z,4.80
2019-03-08T21:48:31.789Z,4.70
2019-03-08T21:51:00.193Z,4.60
2019-03-08T21:53:28.604Z,4.60
2019-03-08T21:55:57.005Z,4.60
2019-03-08T22:00:53.537Z,4.50
2019-03-08T22:03:21.973Z,4.60
2019-03-08T22:05:50.405Z,4.50
2019-03-08T22:08:18.893Z,4.50
2019-03-08T22:10:55.163Z,4.40
2019-03-08T22:13:23.657Z,4.40
2019-03-08T22:15:52.098Z,4.30
2019-03-08T22:20:48.907Z,4.30
2019-03-08T22:23:17.289Z,4.30
2019-03-08T22:25:45.707Z,4.30
2019-03-08T22:28:14.107Z,4.30
2019-03-08T22:30:42.517Z,4.30
2019-03-08T22:33:10.992Z,4.30
2019-03-08T22:38:07.531Z,4.30
2019-03-08T22:40:35.940Z,4.30
2019-03-08T22:43:04.333Z,4.30
2019-03-08T22:45:32.737Z,4.30
2019-03-08T22:48:01.133Z,4.30
2019-03-08T22:50:29.547Z,4.30
2019-03-08T22:52:57.945Z,4.30
2019-03-08T23:00:49.436Z,4.30
2019-03-08T23:03:18.302Z,4.30
2019-03-08T23:05:46.724Z,4.30
2019-03-08T23:08:15.198Z,4.40
2019-03-08T23:10:43.960Z,4.40
2019-03-08T23:13:12.369Z,4.40
2019-03-08T23:15:40.776Z,4.40
2019-03-08T23:18:09.185Z,4.40
2019-03-08T23:20:37.579Z,4.40
2019-03-08T23:23:05.984Z,4.40
2019-03-08T23:25:34.377Z,4.40
2019-03-08T23:28:20.551Z,4.40
2019-03-08T23:33:18.665Z,4.60
2019-03-08T23:35:47.056Z,4.60
2019-03-08T23:38:15.459Z,4.70
2019-03-08T23:40:43.851Z,4.70
2019-03-08T23:43:12.266Z,4.80
2019-03-08T23:45:40.661Z,4.90
2019-03-08T23:48:09.353Z,4.90
2019-03-08T23:50:37.740Z,4.90
2019-03-08T23:53:06.141Z,5.00
2019-03-08T23:55:34.535Z,5.10
2019-03-08T23:58:02.937Z,5.20
